createdAt,value
2022-11-14T00:03:25.409Z,101617.78
2022-11-14T00:08:48.465Z,101608.97
2022-11-14T00:14:11.173Z,101602.84
2022-11-14T00:19:33.334Z,101611.44
2022-11-14T00:24:56.357Z,101614.44
2022-11-14T00:30:17.981Z,101619.34
2022-11-14T00:35:39.947Z,101616.41
2022-11-14T00:41:03.317Z,101608.28
2022-11-14T00:46:25.444Z,101589.84
2022-11-14T00:51:47.644Z,101588.00
2022-11-14T00:57:10.663Z,101585.78
2022-11-14T01:02:32.489Z,101572.22
2022-11-14T01:07:54.185Z,101566.56
2022-11-14T01:13:19.363Z,101558.75
2022-11-14T01:18:41.782Z,101543.72
2022-11-14T01:24:04.911Z,101547.94
2022-11-14T01:29:28.137Z,101533.66
2022-11-14T01:34:50.117Z,101526.53
2022-11-14T01:40:13.368Z,101523.19
2022-11-14T01:45:54.568Z,101522.75
2022-11-14T01:51:27.217Z,101509.53
2022-11-14T01:56:54.139Z,101503.31
2022-11-14T02:02:20.086Z,101497.69
2022-11-14T02:07:42.798Z,101486.16
2022-11-14T02:13:04.264Z,101490.03
2022-11-14T02:18:28.001Z,101481.00
2022-11-14T02:23:51.413Z,101489.38
2022-11-14T02:29:13.238Z,101481.56
2022-11-14T02:34:35.172Z,101470.53
2022-11-14T02:39:58.330Z,101472.91
2022-11-14T02:45:20.907Z,101464.97
2022-11-14T02:50:42.961Z,101456.03
2022-11-14T02:56:06.712Z,101454.81
2022-11-14T03:01:28.798Z,101465.81
2022-11-14T03:06:51.033Z,101452.47
2022-11-14T03:12:18.020Z,101451.03
2022-11-14T03:17:39.951Z,101439.28
2022-11-14T03:23:01.567Z,101437.38
2022-11-14T03:28:24.960Z,101423.94
2022-11-14T03:33:46.810Z,101418.50
2022-11-14T03:39:08.738Z,101415.56
2022-11-14T03:44:31.873Z,101412.75
2022-11-14T03:49:53.710Z,101413.31
2022-11-14T03:55:15.261Z,101410.19
2022-11-14T04:00:39.046Z,101413.25
2022-11-14T04:06:00.808Z,101414.59
2022-11-14T04:11:22.695Z,101412.56
2022-11-14T04:16:45.375Z,101407.91
2022-11-14T04:22:07.139Z,101404.53
2022-11-14T04:27:28.832Z,101386.69
2022-11-14T04:32:51.889Z,101375.84
2022-11-14T04:38:13.631Z,101370.31
2022-11-14T04:43:35.096Z,101370.19
2022-11-14T04:48:57.859Z,101369.28
2022-11-14T04:54:19.241Z,101369.28
2022-11-14T04:59:40.774Z,101362.09
2022-11-14T05:05:03.777Z,101353.25
2022-11-14T05:10:25.462Z,101351.47
2022-11-14T05:15:46.996Z,101346.94
2022-11-14T05:21:13.714Z,101345.13
2022-11-14T05:26:35.542Z,101334.50
2022-11-14T05:31:57.947Z,101334.19
2022-11-14T05:37:20.944Z,101329.53
2022-11-14T05:42:42.932Z,101332.81
2022-11-14T05:48:04.637Z,101345.25
2022-11-14T05:53:28.871Z,101345.25
2022-11-14T05:58:50.361Z,101338.38
2022-11-14T06:04:14.399Z,101330.44
2022-11-14T06:09:37.469Z,101325.47
2022-11-14T06:14:58.972Z,101322.34
2022-11-14T06:20:21.018Z,101334.75
2022-11-14T06:25:45.808Z,101332.94
2022-11-14T06:31:07.462Z,101337.00
2022-11-14T06:36:31.080Z,101331.81
2022-11-14T06:41:54.324Z,101337.91
2022-11-14T06:47:16.059Z,101333.41
2022-11-14T06:52:37.743Z,101338.47
2022-11-14T06:58:01.164Z,101329.53
2022-11-14T07:03:23.964Z,101331.91
2022-11-14T07:08:45.341Z,101329.09
2022-11-14T07:14:08.710Z,101332.47
2022-11-14T07:19:30.462Z,101329.66
2022-11-14T07:24:52.547Z,101332.47
2022-11-14T07:30:16.704Z,101343.19
2022-11-14T07:35:41.076Z,101335.63
2022-11-14T07:41:04.986Z,101341.84
2022-11-14T07:46:27.810Z,101331.81
2022-11-14T07:51:50.093Z,101332.94
2022-11-14T07:57:11.400Z,101325.34
2022-11-14T08:02:34.674Z,101326.41
2022-11-14T08:07:56.658Z,101316.47
2022-11-14T08:13:31.503Z,101308.31
2022-11-14T08:18:55.536Z,101297.44
2022-11-14T08:24:17.493Z,101301.50
2022-11-14T08:29:39.324Z,101290.19
2022-11-14T08:35:02.790Z,101286.16
2022-11-14T08:40:24.459Z,101301.22
2022-11-14T08:45:45.907Z,101289.81
2022-11-14T08:51:10.297Z,101287.25
2022-11-14T08:56:32.076Z,101283.78
2022-11-14T09:01:54.179Z,101286.16
2022-11-14T09:07:17.572Z,101268.22
2022-11-14T09:12:39.467Z,101258.41
2022-11-14T09:18:01.276Z,101240.38
2022-11-14T09:23:25.575Z,101251.31
2022-11-14T09:28:47.744Z,101244.72
2022-11-14T09:34:09.410Z,101231.34
2022-11-14T09:39:32.491Z,101229.78
2022-11-14T09:44:57.849Z,101236.66
2022-11-14T09:50:26.171Z,101244.91
2022-11-14T09:55:49.919Z,101243.28
2022-11-14T10:01:19.136Z,101250.94
2022-11-14T10:06:49.894Z,101236.69
2022-11-14T10:12:19.591Z,101242.59
2022-11-14T10:17:54.514Z,101223.84
2022-11-14T10:23:35.588Z,101223.94
2022-11-14T10:29:20.873Z,101212.34
2022-11-14T10:34:50.951Z,101208.16
2022-11-14T10:40:19.050Z,101202.66
2022-11-14T10:45:44.816Z,101183.91
2022-11-14T10:51:14.131Z,101186.09
2022-11-14T10:56:35.885Z,101183.66
2022-11-14T11:02:00.245Z,101184.88
2022-11-14T11:07:42.725Z,101185.13
2022-11-14T11:13:04.699Z,101179.31
2022-11-14T11:18:31.293Z,101161.13
2022-11-14T11:23:57.447Z,101158.66
2022-11-14T11:29:21.208Z,101159.44
2022-11-14T11:34:44.626Z,101155.13
2022-11-14T11:40:15.245Z,101151.94
2022-11-14T11:45:38.236Z,101143.78
2022-11-14T11:51:04.034Z,101136.28
2022-11-14T11:56:28.850Z,101134.91
2022-11-14T12:01:54.134Z,101132.59
2022-11-14T12:07:20.530Z,101129.41
2022-11-14T12:13:08.062Z,101135.38
2022-11-14T12:18:48.251Z,101131.34
2022-11-14T12:24:47.401Z,101129.66
2022-11-14T12:30:15.164Z,101123.75
2022-11-14T12:35:39.476Z,101118.59
2022-11-14T12:41:07.616Z,101110.78
2022-11-14T12:46:29.048Z,101106.72
2022-11-14T12:51:52.941Z,101101.75
2022-11-14T12:57:40.555Z,101104.34
2022-11-14T13:03:21.903Z,101107.06
2022-11-14T13:09:04.197Z,101113.41
2022-11-14T13:14:45.420Z,101095.75
2022-11-14T13:20:53.307Z,101086.63
2022-11-14T13:26:43.975Z,101050.44
2022-11-14T13:32:11.677Z,101044.41
2022-11-14T13:38:03.880Z,101025.16
2022-11-14T13:43:37.658Z,101019.09
2022-11-14T13:49:13.191Z,101029.00
2022-11-14T13:54:35.542Z,101011.41
2022-11-14T14:00:03.663Z,101004.31
2022-11-14T14:05:33.971Z,101005.91
2022-11-14T14:11:07.321Z,101013.47
2022-11-14T14:16:37.739Z,101022.88
2022-11-14T14:22:08.739Z,101006.94
2022-11-14T14:27:38.786Z,101007.72
2022-11-14T14:33:05.177Z,100993.25
2022-11-14T14:38:30.407Z,101000.13
2022-11-14T14:43:56.361Z,101013.84
2022-11-14T14:49:23.368Z,101007.47
2022-11-14T14:54:56.034Z,101010.78
2022-11-14T15:00:21.884Z,101008.13
2022-11-14T15:05:44.092Z,101006.16
2022-11-14T15:11:08.366Z,101017.69
2022-11-14T15:16:31.295Z,101004.88
2022-11-14T15:22:04.318Z,101001.72
2022-11-14T15:27:27.341Z,100998.00
2022-11-14T15:32:50.821Z,100989.84
2022-11-14T15:38:43.148Z,100984.84
2022-11-14T15:44:05.931Z,100990.19
2022-11-14T15:49:28.747Z,100990.41
2022-11-14T15:54:50.191Z,101003.63
2022-11-14T16:00:17.725Z,101001.06
2022-11-14T16:05:39.760Z,100994.28
2022-11-14T16:11:01.539Z,100987.38
2022-11-14T16:16:24.211Z,100990.44
2022-11-14T16:21:45.957Z,100993.25
2022-11-14T16:27:08.207Z,100989.88
2022-11-14T16:32:31.100Z,100995.41
2022-11-14T16:37:55.600Z,100989.38
2022-11-14T16:43:17.292Z,100994.09
2022-11-14T16:48:40.300Z,100992.84
2022-11-14T16:54:02.125Z,100983.72
2022-11-14T16:59:23.791Z,100988.88
2022-11-14T17:04:47.538Z,100991.19
2022-11-14T17:10:10.159Z,100982.81
2022-11-14T17:15:33.406Z,100977.97
2022-11-14T17:20:56.646Z,100990.69
2022-11-14T17:26:18.577Z,100984.22
2022-11-14T17:31:45.781Z,100978.53
2022-11-14T17:37:10.309Z,100980.09
2022-11-14T17:42:32.036Z,100980.66
2022-11-14T17:47:53.933Z,100975.06
2022-11-14T17:53:16.825Z,100971.31
2022-11-14T17:58:38.590Z,100968.38
2022-11-14T18:04:04.676Z,100973.97
2022-11-14T18:09:29.555Z,100980.69
2022-11-14T18:14:51.304Z,100972.25
2022-11-14T18:20:13.189Z,100969.56
2022-11-14T18:25:36.506Z,100975.22
2022-11-14T18:30:58.029Z,100973.00
2022-11-14T18:36:20.997Z,100965.56
2022-11-14T18:41:44.270Z,100966.97
2022-11-14T18:47:06.345Z,100956.84
2022-11-14T18:52:28.197Z,100956.09
2022-11-14T18:57:51.558Z,100968.34
2022-11-14T19:03:14.453Z,100967.53
2022-11-14T19:08:36.419Z,100969.66
2022-11-14T19:14:03.434Z,100960.44
2022-11-14T19:19:25.614Z,100975.44
2022-11-14T19:24:47.614Z,100977.41
2022-11-14T19:30:11.868Z,100979.19
2022-11-14T19:35:33.348Z,100978.50
2022-11-14T19:40:55.281Z,100973.41
2022-11-14T19:46:19.379Z,100962.25
2022-11-14T19:51:40.818Z,100966.91
2022-11-14T19:57:03.243Z,100961.09
2022-11-14T20:02:28.784Z,100967.28
2022-11-14T20:07:50.542Z,100950.78
2022-11-14T20:13:11.906Z,100948.31
2022-11-14T20:18:35.082Z,100942.50
2022-11-14T20:23:56.842Z,100930.44
2022-11-14T20:29:18.891Z,100938.56
2022-11-14T20:34:41.921Z,100939.63
2022-11-14T20:40:03.296Z,100933.34
2022-11-14T20:45:26.635Z,100918.72
2022-11-14T20:50:50.052Z,100916.28
2022-11-14T20:56:13.678Z,100905.00
2022-11-14T21:01:40.384Z,100901.56
2022-11-14T21:07:06.321Z,100908.66
2022-11-14T21:12:27.920Z,100906.94
2022-11-14T21:17:49.678Z,100896.56
2022-11-14T21:23:12.648Z,100902.94
2022-11-14T21:28:37.871Z,100902.03
2022-11-14T21:34:01.139Z,100901.22
2022-11-14T21:39:24.738Z,100907.56
2022-11-14T21:44:46.854Z,100902.63
2022-11-14T21:50:09.231Z,100896.50
2022-11-14T21:55:34.410Z,100894.69
2022-11-14T22:00:56.199Z,100887.69
2022-11-14T22:06:18.126Z,100893.00
2022-11-14T22:11:41.495Z,100895.81
2022-11-14T22:17:03.373Z,100895.22
2022-11-14T22:22:25.041Z,100891.78
2022-11-14T22:27:48.408Z,100878.56
2022-11-14T22:33:10.542Z,100876.84
2022-11-14T22:38:32.526Z,100871.47
2022-11-14T22:43:56.990Z,100878.56
2022-11-14T22:49:21.179Z,100869.91
2022-11-14T22:54:43.334Z,100869.00
2022-11-14T23:00:08.958Z,100864.53
2022-11-14T23:05:30.949Z,100869.75
2022-11-14T23:10:52.888Z,100872.44
2022-11-14T23:16:18.872Z,100862.81
2022-11-14T23:21:40.754Z,100867.22
2022-11-14T23:27:02.514Z,100861.97
2022-11-14T23:32:25.248Z,100861.09
2022-11-14T23:37:46.845Z,100850.50
2022-11-14T23:43:08.804Z,100843.31
2022-11-14T23:48:31.985Z,100843.75
2022-11-14T23:53:53.946Z,100841.69
2022-11-14T23:59:15.709Z,100852.00
